sensor_id;sensor_type;location;lat;lon;timestamp;pressure;altitude;pressure_sealevel;temperature;humidity
35806;BME280;21925;44.608;11.580;2022-11-15T00:00:32;102132.22;;;9.56;100.00
35806;BME280;21925;44.608;11.580;2022-11-15T00:03:25;102163.75;;;9.67;100.00
35806;BME280;21925;44.608;11.580;2022-11-15T00:06:11;102157.06;;;9.59;100.00
35806;BME280;21925;44.608;11.580;2022-11-15T00:08:58;102121.09;;;9.39;100.00
35806;BME280;21925;44.608;11.580;2022-11-15T00:11:43;102158.59;;;9.52;100.00
35806;BME280;21925;44.608;11.580;2022-11-15T00:14:27;102157.25;;;9.49;100.00
35806;BME280;21925;44.608;11.580;2022-11-15T00:17:12;102094.56;;;9.13;100.00
35806;BME280;21925;44.608;11.580;2022-11-15T00:19:56;102134.38;;;9.32;100.00
35806;BME280;21925;44.608;11.580;2022-11-15T00:22:40;102159.00;;;9.59;100.00
35806;BME280;21925;44.608;11.580;2022-11-15T00:25:26;102119.38;;;9.43;100.00
35806;BME280;21925;44.608;11.580;2022-11-15T00:28:11;102038.34;;;8.93;100.00
35806;BME280;21925;44.608;11.580;2022-11-15T00:31:03;102109.03;;;9.40;100.00
35806;BME280;21925;44.608;11.580;2022-11-15T00:33:48;102138.59;;;9.65;100.00
35806;BME280;21925;44.608;11.580;2022-11-15T00:36:33;102131.41;;;9.55;100.00
35806;BME280;21925;44.608;11.580;2022-11-15T00:39:18;102131.28;;;9.60;100.00
35806;BME280;21925;44.608;11.580;2022-11-15T00:42:03;102115.91;;;9.51;100.00
35806;BME280;21925;44.608;11.580;2022-11-15T00:44:47;102109.78;;;9.54;100.00
35806;BME280;21925;44.608;11.580;2022-11-15T00:47:32;102109.19;;;9.57;100.00
35806;BME280;21925;44.608;11.580;2022-11-15T00:50:16;102126.22;;;9.54;100.00
35806;BME280;21925;44.608;11.580;2022-11-15T00:53:01;102116.84;;;9.33;100.00
35806;BME280;21925;44.608;11.580;2022-11-15T00:55:46;102102.13;;;9.29;100.00
35806;BME280;21925;44.608;11.580;2022-11-15T00:58:31;102088.38;;;9.21;100.00
35806;BME280;21925;44.608;11.580;2022-11-15T01:01:15;102099.72;;;9.14;100.00
35806;BME280;21925;44.608;11.580;2022-11-15T01:03:59;102088.88;;;9.09;100.00
35806;BME280;21925;44.608;11.580;2022-11-15T01:06:44;102123.13;;;9.20;100.00
35806;BME280;21925;44.608;11.580;2022-11-15T01:09:28;102115.00;;;9.29;100.00
35806;BME280;21925;44.608;11.580;2022-11-15T01:12:13;102113.69;;;9.13;100.00
35806;BME280;21925;44.608;11.580;2022-11-15T01:14:58;102087.16;;;8.86;100.00
35806;BME280;21925;44.608;11.580;2022-11-15T01:17:42;102023.94;;;8.48;100.00
35806;BME280;21925;44.608;11.580;2022-11-15T01:20:29;102079.66;;;8.78;100.00
35806;BME280;21925;44.608;11.580;2022-11-15T01:23:13;102087.66;;;8.88;100.00
35806;BME280;21925;44.608;11.580;2022-11-15T01:25:59;102076.63;;;8.80;100.00
35806;BME280;21925;44.608;11.580;2022-11-15T01:28:44;102107.84;;;9.06;100.00
35806;BME280;21925;44.608;11.580;2022-11-15T01:31:28;102093.84;;;8.94;100.00
35806;BME280;21925;44.608;11.580;2022-11-15T01:34:13;102105.09;;;8.92;100.00
35806;BME280;21925;44.608;11.580;2022-11-15T01:36:58;102106.78;;;8.88;100.00
35806;BME280;21925;44.608;11.580;2022-11-15T01:39:43;102107.72;;;8.97;100.00
35806;BME280;21925;44.608;11.580;2022-11-15T01:42:28;102100.72;;;9.05;100.00
35806;BME280;21925;44.608;11.580;2022-11-15T01:45:14;102096.97;;;9.01;100.00
35806;BME280;21925;44.608;11.580;2022-11-15T01:47:59;102101.75;;;8.95;100.00
35806;BME280;21925;44.608;11.580;2022-11-15T01:50:44;102001.75;;;8.36;100.00
35806;BME280;21925;44.608;11.580;2022-11-15T01:53:29;102095.38;;;8.86;100.00
35806;BME280;21925;44.608;11.580;2022-11-15T01:56:20;102076.09;;;8.78;100.00
35806;BME280;21925;44.608;11.580;2022-11-15T01:59:08;102092.72;;;8.81;100.00
35806;BME280;21925;44.608;11.580;2022-11-15T02:01:53;102078.03;;;8.77;100.00
35806;BME280;21925;44.608;11.580;2022-11-15T02:04:42;102092.50;;;8.78;100.00
35806;BME280;21925;44.608;11.580;2022-11-15T02:07:28;102062.63;;;8.55;100.00
35806;BME280;21925;44.608;11.580;2022-11-15T02:10:19;102078.56;;;8.79;100.00
35806;BME280;21925;44.608;11.580;2022-11-15T02:13:03;102086.25;;;8.77;100.00
35806;BME280;21925;44.608;11.580;2022-11-15T02:25:45;102049.25;;;8.67;100.00
35806;BME280;21925;44.608;11.580;2022-11-15T02:43:10;102034.81;;;8.21;100.00
35806;BME280;21925;44.608;11.580;2022-11-15T02:46:39;102053.78;;;8.31;100.00
35806;BME280;21925;44.608;11.580;2022-11-15T02:49:50;102064.59;;;8.04;100.00
35806;BME280;21925;44.608;11.580;2022-11-15T02:52:36;102036.91;;;7.92;100.00
35806;BME280;21925;44.608;11.580;2022-11-15T02:55:35;102061.28;;;8.07;100.00
35806;BME280;21925;44.608;11.580;2022-11-15T02:58:44;102056.75;;;8.16;100.00
35806;BME280;21925;44.608;11.580;2022-11-15T03:07:17;102049.00;;;8.23;100.00
35806;BME280;21925;44.608;11.580;2022-11-15T03:10:09;102042.50;;;8.19;100.00
35806;BME280;21925;44.608;11.580;2022-11-15T03:13:06;102039.47;;;8.20;100.00
35806;BME280;21925;44.608;11.580;2022-11-15T03:21:55;102024.59;;;7.94;100.00
35806;BME280;21925;44.608;11.580;2022-11-15T03:24:40;101996.25;;;7.90;100.00
35806;BME280;21925;44.608;11.580;2022-11-15T03:27:29;102038.00;;;8.09;100.00
35806;BME280;21925;44.608;11.580;2022-11-15T03:30:16;101998.47;;;7.88;100.00
35806;BME280;21925;44.608;11.580;2022-11-15T03:33:02;102005.34;;;7.86;100.00
35806;BME280;21925;44.608;11.580;2022-11-15T03:35:48;101984.72;;;7.80;100.00
35806;BME280;21925;44.608;11.580;2022-11-15T03:38:34;101984.06;;;7.70;100.00
35806;BME280;21925;44.608;11.580;2022-11-15T03:41:24;102013.91;;;7.98;100.00
35806;BME280;21925;44.608;11.580;2022-11-15T03:44:34;102013.97;;;7.93;100.00
35806;BME280;21925;44.608;11.580;2022-11-15T03:47:25;102004.88;;;7.97;100.00
35806;BME280;21925;44.608;11.580;2022-11-15T03:50:19;102021.53;;;7.83;100.00
35806;BME280;21925;44.608;11.580;2022-11-15T03:53:05;101980.75;;;7.54;100.00
35806;BME280;21925;44.608;11.580;2022-11-15T03:55:49;101994.31;;;7.59;100.00
35806;BME280;21925;44.608;11.580;2022-11-15T03:58:34;101985.22;;;7.50;100.00
35806;BME280;21925;44.608;11.580;2022-11-15T04:01:19;102013.56;;;7.68;100.00
35806;BME280;21925;44.608;11.580;2022-11-15T04:04:03;102022.66;;;7.63;100.00
35806;BME280;21925;44.608;11.580;2022-11-15T04:06:47;102015.50;;;7.67;100.00
35806;BME280;21925;44.608;11.580;2022-11-15T04:09:32;102022.56;;;7.68;100.00
35806;BME280;21925;44.608;11.580;2022-11-15T04:12:17;102020.50;;;7.79;100.00
35806;BME280;21925;44.608;11.580;2022-11-15T04:15:17;102016.75;;;7.75;100.00
35806;BME280;21925;44.608;11.580;2022-11-15T04:18:03;101994.41;;;7.54;100.00
35806;BME280;21925;44.608;11.580;2022-11-15T04:20:52;102000.97;;;7.53;100.00
35806;BME280;21925;44.608;11.580;2022-11-15T04:23:56;102015.19;;;7.69;100.00
35806;BME280;21925;44.608;11.580;2022-11-15T04:26:49;102011.16;;;7.66;100.00
35806;BME280;21925;44.608;11.580;2022-11-15T04:29:34;102018.50;;;7.66;100.00
35806;BME280;21925;44.608;11.580;2022-11-15T04:32:19;102009.97;;;7.54;100.00
35806;BME280;21925;44.608;11.580;2022-11-15T04:35:11;102007.63;;;7.47;100.00
35806;BME280;21925;44.608;11.580;2022-11-15T04:37:59;102016.47;;;7.39;100.00
35806;BME280;21925;44.608;11.580;2022-11-15T04:40:44;101973.94;;;7.02;100.00
35806;BME280;21925;44.608;11.580;2022-11-15T04:43:31;102017.41;;;7.11;100.00
35806;BME280;21925;44.608;11.580;2022-11-15T04:46:16;101996.41;;;6.94;100.00
35806;BME280;21925;44.608;11.580;2022-11-15T04:49:01;102009.66;;;7.00;100.00
35806;BME280;21925;44.608;11.580;2022-11-15T04:51:45;101995.75;;;7.02;100.00
35806;BME280;21925;44.608;11.580;2022-11-15T04:54:29;101959.03;;;6.94;100.00
35806;BME280;21925;44.608;11.580;2022-11-15T04:57:14;101973.19;;;6.96;100.00
35806;BME280;21925;44.608;11.580;2022-11-15T04:59:58;101980.72;;;7.04;100.00
35806;BME280;21925;44.608;11.580;2022-11-15T05:02:43;101954.75;;;6.88;100.00
35806;BME280;21925;44.608;11.580;2022-11-15T05:05:46;101955.69;;;6.79;100.00
35806;BME280;21925;44.608;11.580;2022-11-15T05:08:30;101967.75;;;6.73;100.00
35806;BME280;21925;44.608;11.580;2022-11-15T05:11:15;101995.63;;;6.70;100.00
35806;BME280;21925;44.608;11.580;2022-11-15T05:13:59;102001.63;;;6.67;100.00
35806;BME280;21925;44.608;11.580;2022-11-15T05:16:44;101972.66;;;6.29;100.00
35806;BME280;21925;44.608;11.580;2022-11-15T05:19:35;102000.09;;;6.61;100.00
35806;BME280;21925;44.608;11.580;2022-11-15T05:22:19;102006.53;;;6.70;100.00
35806;BME280;21925;44.608;11.580;2022-11-15T05:25:04;101994.97;;;6.31;100.00
35806;BME280;21925;44.608;11.580;2022-11-15T05:27:48;102009.72;;;6.25;100.00
35806;BME280;21925;44.608;11.580;2022-11-15T05:30:33;102001.41;;;6.12;100.00
35806;BME280;21925;44.608;11.580;2022-11-15T05:33:18;101974.97;;;5.89;100.00
35806;BME280;21925;44.608;11.580;2022-11-15T05:39:00;102020.25;;;6.08;100.00
35806;BME280;21925;44.608;11.580;2022-11-15T05:41:58;101974.66;;;5.90;100.00
35806;BME280;21925;44.608;11.580;2022-11-15T05:44:48;102013.72;;;6.09;100.00
35806;BME280;21925;44.608;11.580;2022-11-15T05:47:34;102016.97;;;6.11;100.00
35806;BME280;21925;44.608;11.580;2022-11-15T05:50:19;102005.84;;;6.31;100.00
35806;BME280;21925;44.608;11.580;2022-11-15T05:53:04;102008.38;;;6.51;100.00
35806;BME280;21925;44.608;11.580;2022-11-15T05:55:49;102011.47;;;6.63;100.00
35806;BME280;21925;44.608;11.580;2022-11-15T05:58:35;102009.63;;;6.82;100.00
35806;BME280;21925;44.608;11.580;2022-11-15T06:01:20;101972.69;;;6.71;100.00
35806;BME280;21925;44.608;11.580;2022-11-15T06:04:04;101986.78;;;6.78;100.00
35806;BME280;21925;44.608;11.580;2022-11-15T06:06:51;102008.63;;;6.96;100.00
35806;BME280;21925;44.608;11.580;2022-11-15T06:09:36;101990.78;;;6.85;100.00
35806;BME280;21925;44.608;11.580;2022-11-15T06:12:20;101958.84;;;6.67;100.00
35806;BME280;21925;44.608;11.580;2022-11-15T06:15:05;101961.97;;;6.79;100.00
35806;BME280;21925;44.608;11.580;2022-11-15T06:17:50;102000.09;;;7.03;100.00
35806;BME280;21925;44.608;11.580;2022-11-15T06:20:34;102014.97;;;6.92;100.00
35806;BME280;21925;44.608;11.580;2022-11-15T06:23:28;102000.88;;;6.85;100.00
35806;BME280;21925;44.608;11.580;2022-11-15T06:26:12;101955.56;;;6.89;100.00
35806;BME280;21925;44.608;11.580;2022-11-15T06:28:56;101975.38;;;7.31;100.00
35806;BME280;21925;44.608;11.580;2022-11-15T06:31:43;101982.53;;;7.45;100.00
35806;BME280;21925;44.608;11.580;2022-11-15T06:34:27;101969.50;;;7.42;100.00
35806;BME280;21925;44.608;11.580;2022-11-15T06:37:12;101983.19;;;7.74;100.00
35806;BME280;21925;44.608;11.580;2022-11-15T06:39:57;101997.78;;;7.96;100.00
35806;BME280;21925;44.608;11.580;2022-11-15T06:42:41;101991.22;;;7.97;100.00
35806;BME280;21925;44.608;11.580;2022-11-15T06:45:26;102007.28;;;8.17;100.00
35806;BME280;21925;44.608;11.580;2022-11-15T06:48:10;101985.72;;;8.16;100.00
35806;BME280;21925;44.608;11.580;2022-11-15T06:50:58;102001.56;;;8.32;100.00
35806;BME280;21925;44.608;11.580;2022-11-15T06:53:43;102006.00;;;8.42;100.00
35806;BME280;21925;44.608;11.580;2022-11-15T06:56:28;101993.97;;;8.43;100.00
35806;BME280;21925;44.608;11.580;2022-11-15T06:59:33;102005.81;;;8.52;100.00
35806;BME280;21925;44.608;11.580;2022-11-15T07:02:17;102008.94;;;8.59;100.00
35806;BME280;21925;44.608;11.580;2022-11-15T07:05:05;101992.66;;;8.54;100.00
35806;BME280;21925;44.608;11.580;2022-11-15T07:07:53;101959.34;;;8.38;100.00
35806;BME280;21925;44.608;11.580;2022-11-15T07:10:38;101993.56;;;8.49;100.00
35806;BME280;21925;44.608;11.580;2022-11-15T07:13:26;101995.19;;;8.50;100.00
35806;BME280;21925;44.608;11.580;2022-11-15T07:16:11;102015.44;;;8.63;100.00
35806;BME280;21925;44.608;11.580;2022-11-15T07:18:56;102016.16;;;8.68;100.00
35806;BME280;21925;44.608;11.580;2022-11-15T07:21:41;102010.28;;;8.74;100.00
35806;BME280;21925;44.608;11.580;2022-11-15T07:24:26;102003.69;;;8.89;100.00
35806;BME280;21925;44.608;11.580;2022-11-15T07:27:11;102018.06;;;8.81;100.00
35806;BME280;21925;44.608;11.580;2022-11-15T07:29:56;102018.28;;;8.84;100.00
35806;BME280;21925;44.608;11.580;2022-11-15T07:32:59;102010.97;;;8.80;100.00
35806;BME280;21925;44.608;11.580;2022-11-15T07:35:45;102004.91;;;8.96;100.00
35806;BME280;21925;44.608;11.580;2022-11-15T07:38:37;102016.44;;;9.07;100.00
35806;BME280;21925;44.608;11.580;2022-11-15T07:41:23;102014.19;;;9.09;100.00
35806;BME280;21925;44.608;11.580;2022-11-15T07:44:14;102011.53;;;9.17;100.00
35806;BME280;21925;44.608;11.580;2022-11-15T07:46:59;102012.69;;;9.03;100.00
35806;BME280;21925;44.608;11.580;2022-11-15T07:49:45;102018.06;;;8.94;100.00
35806;BME280;21925;44.608;11.580;2022-11-15T07:52:31;102017.81;;;9.18;100.00
35806;BME280;21925;44.608;11.580;2022-11-15T07:55:23;102015.69;;;9.28;100.00
35806;BME280;21925;44.608;11.580;2022-11-15T07:58:20;101951.84;;;8.84;100.00
35806;BME280;21925;44.608;11.580;2022-11-15T08:01:09;102023.19;;;9.23;100.00
35806;BME280;21925;44.608;11.580;2022-11-15T08:03:56;102024.31;;;9.22;100.00
35806;BME280;21925;44.608;11.580;2022-11-15T08:06:49;102023.94;;;9.50;100.00
35806;BME280;21925;44.608;11.580;2022-11-15T08:09:34;102019.13;;;9.69;100.00
35806;BME280;21925;44.608;11.580;2022-11-15T08:12:27;102014.75;;;9.90;100.00
35806;BME280;21925;44.608;11.580;2022-11-15T08:15:12;101992.72;;;9.73;100.00
35806;BME280;21925;44.608;11.580;2022-11-15T08:17:59;101999.84;;;9.82;100.00
35806;BME280;21925;44.608;11.580;2022-11-15T08:20:51;102008.16;;;10.13;100.00
35806;BME280;21925;44.608;11.580;2022-11-15T08:23:37;101977.16;;;10.04;100.00
35806;BME280;21925;44.608;11.580;2022-11-15T08:26:29;102007.63;;;10.32;100.00
35806;BME280;21925;44.608;11.580;2022-11-15T08:29:47;101997.63;;;10.36;100.00
35806;BME280;21925;44.608;11.580;2022-11-15T08:32:37;102003.94;;;10.37;100.00
35806;BME280;21925;44.608;11.580;2022-11-15T08:35:22;102006.22;;;10.43;100.00
35806;BME280;21925;44.608;11.580;2022-11-15T08:38:11;102012.56;;;10.52;100.00
35806;BME280;21925;44.608;11.580;2022-11-15T08:41:03;102005.78;;;10.58;100.00
35806;BME280;21925;44.608;11.580;2022-11-15T08:44:02;101985.13;;;10.52;100.00
35806;BME280;21925;44.608;11.580;2022-11-15T08:47:02;102005.41;;;10.82;100.00
35806;BME280;21925;44.608;11.580;2022-11-15T08:53:19;101990.31;;;11.10;100.00
35806;BME280;21925;44.608;11.580;2022-11-15T08:56:10;101985.66;;;11.27;100.00
35806;BME280;21925;44.608;11.580;2022-11-15T08:59:22;101984.84;;;11.35;100.00
35806;BME280;21925;44.608;11.580;2022-11-15T09:02:13;101990.97;;;11.49;100.00
35806;BME280;21925;44.608;11.580;2022-11-15T09:08:05;101949.34;;;11.55;100.00
35806;BME280;21925;44.608;11.580;2022-11-15T09:11:02;101976.78;;;11.81;100.00
35806;BME280;21925;44.608;11.580;2022-11-15T09:13:51;101967.56;;;11.93;100.00
35806;BME280;21925;44.608;11.580;2022-11-15T09:16:37;101969.28;;;12.06;100.00
35806;BME280;21925;44.608;11.580;2022-11-15T09:19:25;101970.25;;;12.10;100.00
35806;BME280;21925;44.608;11.580;2022-11-15T09:22:10;101962.06;;;11.93;100.00
35806;BME280;21925;44.608;11.580;2022-11-15T09:24:55;101973.66;;;12.07;100.00
35806;BME280;21925;44.608;11.580;2022-11-15T09:27:55;101959.88;;;12.24;100.00
35806;BME280;21925;44.608;11.580;2022-11-15T09:30:51;101957.81;;;12.04;100.00
35806;BME280;21925;44.608;11.580;2022-11-15T09:33:39;101965.59;;;12.02;100.00
35806;BME280;21925;44.608;11.580;2022-11-15T09:36:26;101969.94;;;12.03;100.00
35806;BME280;21925;44.608;11.580;2022-11-15T09:39:14;101957.81;;;12.04;100.00
35806;BME280;21925;44.608;11.580;2022-11-15T09:42:23;101964.91;;;12.14;100.00
35806;BME280;21925;44.608;11.580;2022-11-15T09:45:29;101966.88;;;12.05;100.00
35806;BME280;21925;44.608;11.580;2022-11-15T09:48:47;101954.69;;;12.23;100.00
35806;BME280;21925;44.608;11.580;2022-11-15T09:51:37;101945.63;;;12.22;100.00
35806;BME280;21925;44.608;11.580;2022-11-15T09:56:47;101951.50;;;12.50;100.00
35806;BME280;21925;44.608;11.580;2022-11-15T10:05:10;101925.75;;;12.54;100.00
35806;BME280;21925;44.608;11.580;2022-11-15T10:08:09;101936.75;;;12.54;100.00
35806;BME280;21925;44.608;11.580;2022-11-15T10:10:43;101924.53;;;12.43;100.00
35806;BME280;21925;44.608;11.580;2022-11-15T10:13:30;101934.69;;;12.51;100.00
35806;BME280;21925;44.608;11.580;2022-11-15T10:22:30;101914.25;;;12.52;100.00
35806;BME280;21925;44.608;11.580;2022-11-15T10:25:28;101900.34;;;12.57;100.00
35806;BME280;21925;44.608;11.580;2022-11-15T10:30:39;101893.69;;;12.58;100.00
35806;BME280;21925;44.608;11.580;2022-11-15T10:41:19;101880.00;;;12.70;100.00
35806;BME280;21925;44.608;11.580;2022-11-15T10:46:27;101875.75;;;12.52;100.00
35806;BME280;21925;44.608;11.580;2022-11-15T10:51:53;101866.13;;;12.95;100.00
35806;BME280;21925;44.608;11.580;2022-11-15T10:54:46;101854.75;;;12.97;100.00
35806;BME280;21925;44.608;11.580;2022-11-15T10:57:18;101851.03;;;12.93;100.00
35806;BME280;21925;44.608;11.580;2022-11-15T10:59:48;101842.66;;;13.10;100.00
35806;BME280;21925;44.608;11.580;2022-11-15T11:02:40;101839.28;;;13.25;100.00
35806;BME280;21925;44.608;11.580;2022-11-15T11:05:31;101836.00;;;13.11;100.00
35806;BME280;21925;44.608;11.580;2022-11-15T11:08:22;101826.81;;;13.07;100.00
35806;BME280;21925;44.608;11.580;2022-11-15T11:10:57;101811.81;;;13.16;100.00
35806;BME280;21925;44.608;11.580;2022-11-15T11:13:39;101815.66;;;13.24;100.00
35806;BME280;21925;44.608;11.580;2022-11-15T11:22:50;101797.06;;;13.33;100.00
35806;BME280;21925;44.608;11.580;2022-11-15T11:26:05;101791.81;;;13.40;100.00
35806;BME280;21925;44.608;11.580;2022-11-15T11:31:44;101784.00;;;13.30;100.00
35806;BME280;21925;44.608;11.580;2022-11-15T11:37:45;101763.81;;;13.38;100.00
35806;BME280;21925;44.608;11.580;2022-11-15T11:40:27;101765.94;;;13.64;100.00
35806;BME280;21925;44.608;11.580;2022-11-15T11:48:13;101764.22;;;13.28;100.00
35806;BME280;21925;44.608;11.580;2022-11-15T11:50:41;101748.00;;;13.14;100.00
35806;BME280;21925;44.608;11.580;2022-11-15T11:53:27;101750.16;;;13.41;100.00
35806;BME280;21925;44.608;11.580;2022-11-15T11:55:58;101739.19;;;13.21;100.00
35806;BME280;21925;44.608;11.580;2022-11-15T11:58:44;101730.75;;;13.50;100.00
35806;BME280;21925;44.608;11.580;2022-11-15T12:01:22;101752.81;;;13.73;100.00
35806;BME280;21925;44.608;11.580;2022-11-15T12:07:17;101744.22;;;13.63;100.00
35806;BME280;21925;44.608;11.580;2022-11-15T12:12:39;101727.09;;;13.81;100.00
35806;BME280;21925;44.608;11.580;2022-11-15T12:17:40;101734.22;;;13.94;100.00
35806;BME280;21925;44.608;11.580;2022-11-15T12:20:25;101727.09;;;13.81;100.00
35806;BME280;21925;44.608;11.580;2022-11-15T12:23:13;101719.28;;;13.83;100.00
35806;BME280;21925;44.608;11.580;2022-11-15T12:28:50;101719.50;;;13.43;100.00
35806;BME280;21925;44.608;11.580;2022-11-15T12:33:57;101718.72;;;13.78;100.00
35806;BME280;21925;44.608;11.580;2022-11-15T12:39:09;101702.31;;;13.69;100.00
35806;BME280;21925;44.608;11.580;2022-11-15T12:41:38;101713.56;;;13.88;100.00
35806;BME280;21925;44.608;11.580;2022-11-15T12:47:02;101700.44;;;13.97;100.00
35806;BME280;21925;44.608;11.580;2022-11-15T12:59:47;101676.56;;;13.65;100.00
35806;BME280;21925;44.608;11.580;2022-11-15T13:17:39;101643.97;;;13.44;100.00
35806;BME280;21925;44.608;11.580;2022-11-15T13:22:53;101650.75;;;13.34;100.00
35806;BME280;21925;44.608;11.580;2022-11-15T13:30:58;101634.34;;;13.38;100.00
35806;BME280;21925;44.608;11.580;2022-11-15T13:35:59;101634.66;;;13.00;100.00
35806;BME280;21925;44.608;11.580;2022-11-15T13:38:29;101626.75;;;13.11;100.00
35806;BME280;21925;44.608;11.580;2022-11-15T13:40:57;101587.25;;;12.95;100.00
35806;BME280;21925;44.608;11.580;2022-11-15T13:43:31;101628.59;;;13.31;100.00
35806;BME280;21925;44.608;11.580;2022-11-15T13:46:27;101613.91;;;13.15;100.00
35806;BME280;21925;44.608;11.580;2022-11-15T13:49:08;101628.69;;;13.10;100.00
35806;BME280;21925;44.608;11.580;2022-11-15T13:51:50;101625.13;;;12.98;100.00
35806;BME280;21925;44.608;11.580;2022-11-15T13:57:31;101600.13;;;13.03;100.00
35806;BME280;21925;44.608;11.580;2022-11-15T13:59:59;101623.41;;;13.05;100.00
35806;BME280;21925;44.608;11.580;2022-11-15T14:02:37;101622.13;;;12.91;100.00
35806;BME280;21925;44.608;11.580;2022-11-15T14:05:17;101619.22;;;12.87;100.00
35806;BME280;21925;44.608;11.580;2022-11-15T14:08:12;101617.78;;;12.90;100.00
35806;BME280;21925;44.608;11.580;2022-11-15T14:10:46;101590.88;;;12.75;100.00
35806;BME280;21925;44.608;11.580;2022-11-15T14:13:31;101599.97;;;12.87;100.00
35806;BME280;21925;44.608;11.580;2022-11-15T14:16:20;101587.50;;;12.90;100.00
35806;BME280;21925;44.608;11.580;2022-11-15T14:18:53;101604.25;;;13.09;100.00
35806;BME280;21925;44.608;11.580;2022-11-15T14:21:20;101565.00;;;12.88;100.00
35806;BME280;21925;44.608;11.580;2022-11-15T14:23:46;101596.16;;;12.80;100.00
35806;BME280;21925;44.608;11.580;2022-11-15T14:26:30;101576.84;;;12.68;100.00
35806;BME280;21925;44.608;11.580;2022-11-15T14:29:23;101584.31;;;12.68;100.00
35806;BME280;21925;44.608;11.580;2022-11-15T14:31:51;101597.53;;;12.74;100.00
35806;BME280;21925;44.608;11.580;2022-11-15T14:34:18;101592.50;;;12.76;100.00
35806;BME280;21925;44.608;11.580;2022-11-15T14:36:44;101598.31;;;12.74;100.00
35806;BME280;21925;44.608;11.580;2022-11-15T14:39:10;101578.72;;;12.76;100.00
35806;BME280;21925;44.608;11.580;2022-11-15T14:41:39;101579.53;;;12.76;100.00
35806;BME280;21925;44.608;11.580;2022-11-15T14:44:06;101585.16;;;12.80;100.00
35806;BME280;21925;44.608;11.580;2022-11-15T14:46:32;101585.19;;;12.48;100.00
35806;BME280;21925;44.608;11.580;2022-11-15T14:48:58;101555.84;;;12.52;100.00
35806;BME280;21925;44.608;11.580;2022-11-15T14:51:24;101570.31;;;12.61;100.00
35806;BME280;21925;44.608;11.580;2022-11-15T14:53:51;101578.22;;;12.62;100.00
35806;BME280;21925;44.608;11.580;2022-11-15T14:56:17;101562.41;;;12.59;100.00
35806;BME280;21925;44.608;11.580;2022-11-15T14:58:43;101557.28;;;12.70;100.00
35806;BME280;21925;44.608;11.580;2022-11-15T15:01:23;101576.66;;;12.85;100.00
35806;BME280;21925;44.608;11.580;2022-11-15T15:03:49;101551.66;;;12.66;100.00
35806;BME280;21925;44.608;11.580;2022-11-15T15:06:18;101553.25;;;12.79;100.00
35806;BME280;21925;44.608;11.580;2022-11-15T15:08:45;101572.06;;;12.77;100.00
35806;BME280;21925;44.608;11.580;2022-11-15T15:11:19;101551.13;;;12.52;100.00
35806;BME280;21925;44.608;11.580;2022-11-15T15:13:46;101551.13;;;12.52;100.00
35806;BME280;21925;44.608;11.580;2022-11-15T15:16:12;101550.72;;;12.62;100.00
35806;BME280;21925;44.608;11.580;2022-11-15T15:18:37;101526.03;;;12.42;100.00
35806;BME280;21925;44.608;11.580;2022-11-15T15:21:23;101561.75;;;12.74;100.00
35806;BME280;21925;44.608;11.580;2022-11-15T15:23:50;101499.34;;;12.42;100.00
35806;BME280;21925;44.608;11.580;2022-11-15T15:26:17;101543.72;;;12.65;100.00
35806;BME280;21925;44.608;11.580;2022-11-15T15:28:43;101558.66;;;12.64;100.00
35806;BME280;21925;44.608;11.580;2022-11-15T15:31:10;101514.00;;;12.34;100.00
35806;BME280;21925;44.608;11.580;2022-11-15T15:33:37;101553.94;;;12.64;100.00
35806;BME280;21925;44.608;11.580;2022-11-15T15:36:03;101555.84;;;12.52;100.00
35806;BME280;21925;44.608;11.580;2022-11-15T15:38:30;101533.25;;;12.34;100.00
35806;BME280;21925;44.608;11.580;2022-11-15T15:40:56;101524.16;;;12.22;100.00
35806;BME280;21925;44.608;11.580;2022-11-15T15:43:22;101544.91;;;12.31;100.00
35806;BME280;21925;44.608;11.580;2022-11-15T15:45:48;101504.06;;;12.09;100.00
35806;BME280;21925;44.608;11.580;2022-11-15T15:48:16;101540.19;;;12.20;100.00
35806;BME280;21925;44.608;11.580;2022-11-15T15:50:42;101549.03;;;12.37;100.00
35806;BME280;21925;44.608;11.580;2022-11-15T15:53:09;101561.03;;;12.65;100.00
35806;BME280;21925;44.608;11.580;2022-11-15T15:55:36;101540.84;;;12.49;100.00
35806;BME280;21925;44.608;11.580;2022-11-15T15:58:04;101556.78;;;12.56;100.00
35806;BME280;21925;44.608;11.580;2022-11-15T16:00:31;101543.16;;;12.59;100.00
35806;BME280;21925;44.608;11.580;2022-11-15T16:03:00;101552.09;;;12.56;100.00
35806;BME280;21925;44.608;11.580;2022-11-15T16:05:26;101519.19;;;12.48;100.00
35806;BME280;21925;44.608;11.580;2022-11-15T16:07:52;101530.19;;;12.48;100.00
35806;BME280;21925;44.608;11.580;2022-11-15T16:12:50;101525.00;;;12.46;100.00
35806;BME280;21925;44.608;11.580;2022-11-15T16:15:17;101529.84;;;12.49;100.00
35806;BME280;21925;44.608;11.580;2022-11-15T16:17:52;101518.38;;;12.47;100.00
35806;BME280;21925;44.608;11.580;2022-11-15T16:20:38;101530.75;;;12.53;100.00
35806;BME280;21925;44.608;11.580;2022-11-15T16:23:10;101524.69;;;12.60;100.00
35806;BME280;21925;44.608;11.580;2022-11-15T16:25:53;101501.06;;;12.59;100.00
35806;BME280;21925;44.608;11.580;2022-11-15T16:30:49;101479.38;;;12.45;100.00
35806;BME280;21925;44.608;11.580;2022-11-15T16:33:24;101503.56;;;12.40;100.00
35806;BME280;21925;44.608;11.580;2022-11-15T16:35:50;101498.44;;;12.50;100.00